Time;durP1;ratioP1;P1;durP2;ratioP2;P2;SDS_P1;SDS_P2;PMS_P1;PMS_P2;Temp;Humidity;BMP_temperature;BMP_pressure;BME280_temperature;BME280_humidity;BME280_pressure;Samples;Min_cycle;Max_cycle;Signal;HPM_P1;HPM_P2
2022/10/01 00:02:15;;;;;;;4.90;3.37;;;11.30;99.90;;;;;;5048221;28;20278;-53
2022/10/01 00:04:43;;;;;;;3.83;3.10;;;11.30;99.90;;;;;;5044061;28;20280;-53
2022/10/01 00:07:13;;;;;;;4.43;3.33;;;11.30;99.90;;;;;;5051275;28;20622;-54
2022/10/01 00:09:42;;;;;;;4.53;3.27;;;11.20;99.90;;;;;;5059067;28;20262;-52
2022/10/01 00:12:10;;;;;;;6.27;3.17;;;11.20;99.90;;;;;;5043104;28;20236;-53
2022/10/01 00:14:39;;;;;;;4.03;3.07;;;11.20;99.90;;;;;;5053402;28;20220;-53
2022/10/01 00:17:07;;;;;;;4.07;3.10;;;11.20;99.90;;;;;;5053126;28;20226;-54
2022/10/01 00:19:35;;;;;;;3.77;3.00;;;11.20;99.90;;;;;;5053097;28;20238;-54
2022/10/01 00:22:03;;;;;;;4.80;3.27;;;11.30;99.90;;;;;;5051120;28;20250;-53
2022/10/01 00:24:32;;;;;;;5.87;3.37;;;11.20;99.90;;;;;;5053429;28;20225;-53
2022/10/01 00:27:00;;;;;;;4.70;3.33;;;11.20;99.90;;;;;;5049507;28;20245;-53
2022/10/01 00:29:28;;;;;;;4.73;3.20;;;11.20;99.90;;;;;;5053405;28;20221;-54
2022/10/01 00:31:57;;;;;;;3.67;3.20;;;11.20;99.90;;;;;;5051324;28;20253;-52
2022/10/01 00:34:26;;;;;;;4.90;3.27;;;11.20;99.90;;;;;;5051126;28;20641;-52
2022/10/01 00:36:54;;;;;;;5.53;3.10;;;11.20;99.90;;;;;;5052684;28;20230;-52
2022/10/01 00:39:23;;;;;;;3.60;3.30;;;11.20;99.90;;;;;;5053062;28;20619;-54
2022/10/01 00:41:51;;;;;;;4.00;3.30;;;11.20;99.90;;;;;;5050444;28;20234;-53
2022/10/01 00:44:30;;;;;;;3.23;2.90;;;11.10;99.90;;;;;;5053295;28;20635;-53
2022/10/01 00:47:10;;;;;;;3.23;2.93;;;11.20;99.90;;;;;;5051438;28;20229;-53
2022/10/01 00:49:40;;;;;;;3.47;2.80;;;11.20;99.90;;;;;;5053001;28;20221;-52
2022/10/01 00:52:13;;;;;;;4.30;3.30;;;11.20;99.90;;;;;;5050681;28;20591;-53
2022/10/01 00:54:46;;;;;;;3.57;3.03;;;11.20;99.90;;;;;;5052954;28;20582;-53
2022/10/01 00:57:18;;;;;;;3.03;2.83;;;11.10;99.90;;;;;;5052516;28;20221;-53
2022/10/01 00:59:47;;;;;;;3.33;3.00;;;11.10;99.90;;;;;;5052610;28;20226;-53
2022/10/01 01:02:16;;;;;;;4.07;2.80;;;11.10;99.90;;;;;;5050031;28;20238;-53
2022/10/01 01:04:44;;;;;;;4.43;3.90;;;11.10;99.90;;;;;;5052798;28;20255;-53
2022/10/01 01:07:13;;;;;;;3.77;3.17;;;11.10;99.90;;;;;;5052787;28;20231;-53
2022/10/01 01:09:44;;;;;;;2.70;2.43;;;11.20;99.90;;;;;;5052540;28;20225;-52
2022/10/01 01:12:32;;;;;;;5.77;2.87;;;11.20;99.90;;;;;;5042446;28;20690;-52
2022/10/01 01:15:10;;;;;;;3.07;2.70;;;11.20;99.90;;;;;;5052792;28;20234;-52
2022/10/01 01:17:47;;;;;;;4.37;3.03;;;11.20;99.90;;;;;;5049008;28;20625;-53
2022/10/01 01:20:41;;;;;;;3.93;2.73;;;11.20;99.90;;;;;;5045331;28;20685;-53
2022/10/01 01:23:26;;;;;;;3.73;2.77;;;11.20;99.90;;;;;;5014426;28;20238;-52
2022/10/01 01:26:00;;;;;;;3.07;2.60;;;11.20;99.90;;;;;;5050607;28;20221;-52
2022/10/01 01:28:33;;;;;;;3.83;2.97;;;11.20;99.90;;;;;;5046591;28;20222;-54
2022/10/01 01:31:06;;;;;;;3.87;3.10;;;11.20;99.90;;;;;;5052285;28;20598;-53
2022/10/01 01:33:37;;;;;;;3.27;2.83;;;11.20;99.90;;;;;;5041946;28;20290;-53
2022/10/01 01:36:09;;;;;;;4.20;3.20;;;11.20;99.90;;;;;;5052242;28;20241;-53
2022/10/01 01:38:43;;;;;;;5.23;3.17;;;11.20;99.90;;;;;;5048104;28;20220;-53
2022/10/01 01:41:13;;;;;;;3.47;2.83;;;11.20;99.90;;;;;;5055224;28;20309;-52
2022/10/01 01:43:45;;;;;;;3.13;2.60;;;11.20;99.90;;;;;;5042912;28;20234;-53
2022/10/01 01:46:16;;;;;;;3.40;3.10;;;11.20;99.90;;;;;;5040728;28;20277;-52
2022/10/01 01:48:48;;;;;;;3.93;2.83;;;11.20;99.90;;;;;;5039772;28;20226;-52
2022/10/01 01:51:22;;;;;;;4.53;3.00;;;11.20;99.90;;;;;;5051980;28;20229;-53
2022/10/01 01:53:51;;;;;;;3.40;3.10;;;11.20;99.90;;;;;;5048619;28;20673;-52
2022/10/01 01:56:19;;;;;;;3.57;2.73;;;11.20;99.90;;;;;;5052461;28;20230;-53
2022/10/01 01:58:48;;;;;;;5.03;3.10;;;11.20;99.90;;;;;;5049180;28;20225;-53
2022/10/01 02:01:37;;;;;;;3.40;3.10;;;11.20;99.90;;;;;;5051805;28;20234;-53
2022/10/01 02:04:09;;;;;;;3.63;3.33;;;11.30;99.90;;;;;;5048875;28;20226;-53
2022/10/01 02:06:56;;;;;;;3.50;2.90;;;11.20;99.90;;;;;;5052024;28;20231;-53
2022/10/01 02:09:30;;;;;;;3.67;3.13;;;11.30;99.90;;;;;;5048531;28;20227;-53
2022/10/01 02:12:11;;;;;;;3.80;2.93;;;11.30;99.90;;;;;;5050239;28;20220;-53
2022/10/01 02:14:48;;;;;;;3.57;3.07;;;11.30;99.90;;;;;;5047997;28;20222;-53
2022/10/01 02:17:26;;;;;;;5.90;3.40;;;11.30;99.90;;;;;;5044057;28;20222;-53
2022/10/01 02:19:57;;;;;;;3.93;3.03;;;11.30;99.90;;;;;;5048175;28;20242;-52
2022/10/01 02:22:34;;;;;;;3.20;2.90;;;11.30;99.90;;;;;;5047216;28;20307;-53
2022/10/01 02:25:04;;;;;;;3.93;2.93;;;11.30;99.90;;;;;;5052000;28;20262;-53
2022/10/01 02:27:36;;;;;;;4.00;2.80;;;11.30;99.90;;;;;;5051900;28;20237;-53
2022/10/01 02:30:09;;;;;;;3.60;3.17;;;11.30;99.90;;;;;;5050831;28;20590;-53
2022/10/01 02:32:39;;;;;;;3.50;3.10;;;11.30;99.90;;;;;;5045333;28;20231;-54
2022/10/01 02:35:11;;;;;;;4.17;3.50;;;11.30;99.90;;;;;;5051797;28;20226;-53
2022/10/01 02:37:41;;;;;;;3.50;3.03;;;11.30;99.90;;;;;;5051961;28;20234;-53
2022/10/01 02:40:12;;;;;;;3.70;3.10;;;11.30;99.90;;;;;;5048861;28;20219;-53
2022/10/01 02:42:43;;;;;;;5.17;3.20;;;11.30;99.90;;;;;;5046128;28;20293;-52
2022/10/01 02:45:15;;;;;;;3.87;3.17;;;11.30;99.90;;;;;;5047337;28;20220;-52
2022/10/01 02:47:47;;;;;;;4.03;3.20;;;11.30;99.90;;;;;;5047923;28;20226;-52
2022/10/01 02:50:15;;;;;;;6.87;3.60;;;11.30;99.90;;;;;;5048026;28;20623;-53
2022/10/01 02:52:49;;;;;;;4.83;3.60;;;11.40;99.90;;;;;;5051907;28;20279;-52
2022/10/01 02:55:20;;;;;;;3.57;3.27;;;11.30;99.90;;;;;;5043447;28;20231;-53
2022/10/01 02:57:48;;;;;;;4.23;3.27;;;11.30;99.90;;;;;;5041332;28;20260;-52
2022/10/01 03:00:20;;;;;;;4.20;3.27;;;11.20;99.90;;;;;;5054712;28;20267;-52
2022/10/01 03:02:49;;;;;;;4.53;3.37;;;11.20;99.90;;;;;;5046411;28;20257;-52
2022/10/01 03:05:19;;;;;;;4.73;3.60;;;11.10;99.90;;;;;;5053313;28;20227;-53
2022/10/01 03:07:47;;;;;;;3.73;2.93;;;11.10;99.90;;;;;;5040192;28;20235;-53
2022/10/01 03:10:16;;;;;;;8.43;3.63;;;11.10;99.90;;;;;;5060265;28;20218;-53
2022/10/01 03:12:45;;;;;;;4.10;3.30;;;11.10;99.90;;;;;;5051213;28;20230;-53
2022/10/01 03:15:15;;;;;;;4.10;3.70;;;11.00;99.90;;;;;;5054971;28;20321;-53
2022/10/01 03:17:45;;;;;;;5.30;3.73;;;11.00;99.90;;;;;;5055068;28;20284;-53
2022/10/01 03:20:13;;;;;;;3.77;3.47;;;11.00;99.90;;;;;;5054901;28;20532;-53
2022/10/01 03:22:41;;;;;;;4.10;3.43;;;11.00;99.90;;;;;;5050789;28;20271;-53
2022/10/01 03:25:09;;;;;;;3.80;3.40;;;11.00;99.90;;;;;;5046335;28;20229;-54
2022/10/01 03:27:37;;;;;;;4.37;3.47;;;11.00;99.90;;;;;;5054578;28;20239;-52
2022/10/01 03:30:06;;;;;;;4.23;3.83;;;11.00;99.90;;;;;;5054361;28;20222;-53
2022/10/01 03:32:34;;;;;;;5.17;4.20;;;11.00;99.90;;;;;;5046619;28;20319;-54
2022/10/01 03:35:04;;;;;;;4.17;3.77;;;10.90;99.90;;;;;;5053208;28;20249;-52
2022/10/01 03:37:32;;;;;;;4.40;3.73;;;10.90;99.90;;;;;;5035360;28;20237;-54
2022/10/01 03:40:01;;;;;;;5.30;3.87;;;10.90;99.90;;;;;;5058361;28;20227;-53
2022/10/01 03:42:29;;;;;;;5.50;4.27;;;10.90;99.90;;;;;;5046701;28;20230;-54
2022/10/01 03:44:57;;;;;;;5.60;3.90;;;10.90;99.90;;;;;;5051795;28;20280;-52
2022/10/01 03:47:25;;;;;;;5.47;4.10;;;10.90;99.90;;;;;;5054774;28;20225;-52
2022/10/01 03:49:53;;;;;;;5.23;4.47;;;10.90;99.90;;;;;;5053272;28;20215;-53
2022/10/01 03:52:22;;;;;;;6.43;4.17;;;10.90;99.90;;;;;;5049289;28;20281;-54
2022/10/01 03:54:50;;;;;;;6.17;4.43;;;10.90;99.90;;;;;;5053759;28;20225;-54
2022/10/01 03:57:18;;;;;;;7.13;4.27;;;10.80;99.90;;;;;;5054370;28;20275;-53
2022/10/01 03:59:46;;;;;;;5.37;4.50;;;10.80;99.90;;;;;;5053741;28;20234;-54
2022/10/01 04:02:14;;;;;;;9.27;5.47;;;10.80;99.90;;;;;;5049324;28;20234;-54
2022/10/01 04:04:42;;;;;;;5.20;4.40;;;10.80;99.90;;;;;;5053608;28;20240;-54
2022/10/01 04:07:10;;;;;;;6.03;5.10;;;10.80;99.90;;;;;;5034135;28;20701;-54
2022/10/01 04:09:40;;;;;;;5.30;4.53;;;10.80;99.90;;;;;;5053097;28;20600;-53
2022/10/01 04:12:08;;;;;;;7.27;4.83;;;10.70;99.90;;;;;;5049481;28;20236;-53
2022/10/01 04:14:36;;;;;;;5.73;5.10;;;10.80;99.90;;;;;;5048620;28;20230;-53
2022/10/01 04:17:04;;;;;;;5.03;4.60;;;10.70;99.90;;;;;;5054289;28;20255;-54
2022/10/01 04:19:32;;;;;;;5.17;4.70;;;10.70;99.90;;;;;;5053115;28;20230;-53
2022/10/01 04:22:00;;;;;;;6.70;4.90;;;10.70;99.90;;;;;;5046925;28;20231;-53
2022/10/01 04:24:28;;;;;;;4.80;4.40;;;10.70;99.90;;;;;;5052278;28;20223;-53
2022/10/01 04:26:57;;;;;;;4.90;4.50;;;10.70;99.90;;;;;;5053269;28;20260;-53
2022/10/01 04:29:25;;;;;;;7.90;4.90;;;10.70;99.90;;;;;;5053013;28;20233;-52
2022/10/01 04:31:53;;;;;;;5.63;4.73;;;10.70;99.90;;;;;;5049745;28;20224;-52
2022/10/01 04:34:51;;;;;;;6.17;5.30;;;10.70;99.90;;;;;;5046481;28;20245;-53
2022/10/01 04:37:10;;;;;;;6.40;4.77;;;10.60;99.90;;;;;;5033353;28;20268;-53
2022/10/01 04:39:38;;;;;;;5.23;4.70;;;10.70;99.90;;;;;;5044278;28;20221;-53
2022/10/01 04:42:07;;;;;;;7.17;5.40;;;10.70;99.90;;;;;;5049780;28;20631;-49
2022/10/01 04:44:35;;;;;;;5.50;4.60;;;10.60;99.90;;;;;;5047450;28;20230;-52
2022/10/01 04:47:03;;;;;;;5.23;4.73;;;10.60;99.90;;;;;;5053087;28;20225;-53
2022/10/01 04:49:32;;;;;;;5.30;4.80;;;10.60;99.90;;;;;;5052559;28;20253;-52
2022/10/01 04:52:00;;;;;;;6.60;5.00;;;10.60;99.90;;;;;;5049986;28;20247;-54
2022/10/01 04:54:28;;;;;;;5.63;4.97;;;10.60;99.90;;;;;;5048359;28;20227;-53
2022/10/01 04:56:57;;;;;;;7.23;4.87;;;10.60;99.90;;;;;;5053188;28;20241;-53
2022/10/01 04:59:27;;;;;;;5.63;4.97;;;10.60;99.90;;;;;;5052132;28;20220;-53
2022/10/01 05:01:55;;;;;;;6.67;5.13;;;10.60;99.90;;;;;;5049188;28;20225;-51
2022/10/01 05:04:23;;;;;;;5.70;5.10;;;10.60;99.90;;;;;;5050360;28;20229;-53
2022/10/01 05:06:51;;;;;;;5.40;4.90;;;10.60;99.90;;;;;;5052674;28;20239;-53
2022/10/01 05:09:19;;;;;;;5.67;5.17;;;10.60;99.90;;;;;;5051734;28;20224;-52
2022/10/01 05:11:50;;;;;;;5.83;4.70;;;10.50;99.90;;;;;;5047534;28;20280;-53
2022/10/01 05:14:20;;;;;;;5.73;4.47;;;10.50;99.90;;;;;;5044192;28;20232;-53
2022/10/01 05:16:49;;;;;;;4.80;4.30;;;10.50;99.90;;;;;;5041729;28;20234;-53
2022/10/01 05:19:17;;;;;;;5.97;5.10;;;10.50;99.90;;;;;;5052383;28;20292;-53
2022/10/01 05:21:45;;;;;;;5.80;5.20;;;10.50;99.90;;;;;;5052026;28;20287;-50
2022/10/01 05:24:15;;;;;;;6.20;4.70;;;10.50;99.90;;;;;;5053150;28;20225;-53
2022/10/01 05:26:43;;;;;;;6.30;4.90;;;10.50;99.90;;;;;;5047194;28;20284;-52
2022/10/01 05:29:14;;;;;;;6.20;4.57;;;10.50;99.90;;;;;;5049857;28;20271;-52
2022/10/01 05:31:43;;;;;;;5.67;5.10;;;10.50;99.90;;;;;;5050852;28;20223;-51
2022/10/01 05:34:13;;;;;;;7.17;4.70;;;10.50;99.90;;;;;;5044083;28;20322;-51
2022/10/01 05:36:41;;;;;;;8.70;5.13;;;10.50;99.90;;;;;;5051641;28;20224;-52
2022/10/01 05:39:10;;;;;;;6.10;4.63;;;10.50;99.90;;;;;;5049339;28;20231;-53
2022/10/01 05:41:39;;;;;;;5.50;4.90;;;10.50;99.90;;;;;;5046751;28;20321;-53
2022/10/01 05:44:07;;;;;;;6.83;4.90;;;10.50;99.90;;;;;;5039275;28;20307;-53
2022/10/01 05:46:36;;;;;;;5.87;4.87;;;10.50;99.90;;;;;;5046821;28;20211;-54
2022/10/01 05:49:05;;;;;;;4.97;4.53;;;10.50;99.90;;;;;;5052264;28;20250;-53
2022/10/01 05:51:35;;;;;;;4.90;4.50;;;10.50;99.90;;;;;;5052229;28;20229;-52
2022/10/01 05:54:04;;;;;;;5.27;4.77;;;10.50;99.90;;;;;;5048237;28;20933;-52
2022/10/01 05:56:32;;;;;;;5.90;5.00;;;10.50;99.90;;;;;;5051059;28;20236;-53
2022/10/01 05:59:00;;;;;;;5.23;4.80;;;10.50;99.90;;;;;;5052291;28;20257;-53
2022/10/01 06:01:28;;;;;;;5.60;4.90;;;10.50;99.90;;;;;;5048934;28;20251;-53
2022/10/01 06:03:56;;;;;;;5.87;4.53;;;10.50;99.90;;;;;;5048138;28;20624;-54
2022/10/01 06:06:26;;;;;;;5.67;5.17;;;10.50;99.90;;;;;;5052306;28;20821;-52
2022/10/01 06:08:55;;;;;;;6.80;4.90;;;10.50;99.90;;;;;;5052312;28;20241;-53
2022/10/01 06:11:25;;;;;;;5.00;4.47;;;10.50;99.90;;;;;;5051595;28;20221;-53
2022/10/01 06:13:53;;;;;;;5.70;5.10;;;10.50;99.90;;;;;;5042165;28;20225;-53
2022/10/01 06:16:21;;;;;;;6.47;4.43;;;10.50;99.90;;;;;;5053461;28;20230;-52
2022/10/01 06:18:55;;;;;;;6.03;4.70;;;10.50;99.90;;;;;;5055783;28;20222;-53
2022/10/01 06:21:24;;;;;;;5.73;4.30;;;10.60;99.90;;;;;;5055369;28;20225;-52
2022/10/01 06:23:52;;;;;;;4.67;4.27;;;10.50;99.90;;;;;;5046232;28;20284;-54
2022/10/01 06:26:22;;;;;;;4.93;4.13;;;10.50;99.90;;;;;;5055670;28;20238;-52
2022/10/01 06:28:50;;;;;;;4.53;4.13;;;10.60;99.90;;;;;;5055465;28;20237;-53
2022/10/01 06:31:19;;;;;;;4.87;4.37;;;10.60;99.90;;;;;;5054883;28;20227;-52
2022/10/01 06:33:48;;;;;;;5.07;4.57;;;10.60;99.90;;;;;;5044787;28;20228;-52
2022/10/01 06:36:16;;;;;;;4.77;4.33;;;10.60;99.90;;;;;;5055479;28;20287;-52
2022/10/01 06:38:44;;;;;;;5.03;4.43;;;10.60;99.90;;;;;;5055678;28;20234;-53
2022/10/01 06:41:12;;;;;;;4.43;4.03;;;10.70;99.90;;;;;;5054468;28;20222;-52
2022/10/01 06:43:41;;;;;;;5.17;4.70;;;10.70;99.90;;;;;;5046776;28;20231;-52
2022/10/01 06:46:10;;;;;;;5.80;5.20;;;10.60;99.90;;;;;;5047926;28;20232;-53
2022/10/01 06:48:38;;;;;;;7.03;5.30;;;10.70;99.90;;;;;;5055501;28;20631;-51
2022/10/01 06:51:07;;;;;;;6.37;5.27;;;10.70;99.90;;;;;;5054883;28;20238;-53
2022/10/01 06:53:35;;;;;;;6.07;5.47;;;10.70;99.90;;;;;;5051033;28;20218;-53
2022/10/01 06:56:05;;;;;;;5.60;5.10;;;10.70;99.90;;;;;;5054387;28;20235;-51
2022/10/01 06:58:33;;;;;;;5.67;5.10;;;10.70;99.90;;;;;;5055176;28;20226;-51
2022/10/01 07:01:03;;;;;;;5.10;4.70;;;10.70;99.90;;;;;;5052033;28;20248;-52
2022/10/01 07:03:32;;;;;;;5.00;4.60;;;10.70;99.90;;;;;;5045585;28;20232;-50
2022/10/01 07:06:04;;;;;;;4.70;4.30;;;10.70;99.90;;;;;;5054305;28;20224;-53
2022/10/01 07:08:32;;;;;;;5.10;4.60;;;10.60;99.90;;;;;;5055008;28;20237;-52
2022/10/01 07:11:02;;;;;;;5.33;4.23;;;10.70;99.90;;;;;;5047564;28;20233;-51
2022/10/01 07:13:30;;;;;;;4.60;3.97;;;10.70;99.90;;;;;;5049626;28;20225;-52
2022/10/01 07:15:58;;;;;;;4.10;3.53;;;10.70;99.90;;;;;;5055077;28;20291;-52
2022/10/01 07:18:28;;;;;;;5.17;4.77;;;10.70;99.90;;;;;;5054928;28;20778;-51
2022/10/01 07:20:57;;;;;;;4.83;4.43;;;10.60;99.90;;;;;;5054528;28;20226;-52
2022/10/01 07:23:25;;;;;;;4.60;4.20;;;10.60;99.90;;;;;;5049727;28;20226;-52
2022/10/01 07:25:53;;;;;;;4.47;4.07;;;10.60;99.90;;;;;;5054676;28;20222;-53
2022/10/01 07:28:24;;;;;;;4.27;3.87;;;10.70;99.90;;;;;;5054484;28;20306;-53
2022/10/01 07:30:59;;;;;;;4.30;3.90;;;10.70;99.90;;;;;;5049272;28;20329;-49
2022/10/01 07:33:29;;;;;;;4.63;3.97;;;10.60;99.90;;;;;;5049194;28;20249;-52
2022/10/01 07:36:00;;;;;;;4.23;3.70;;;10.70;99.90;;;;;;5054626;28;20260;-52
2022/10/01 07:38:28;;;;;;;3.80;3.50;;;10.70;99.90;;;;;;5054619;28;20712;-52
2022/10/01 07:40:57;;;;;;;3.83;3.53;;;10.80;99.90;;;;;;5053957;28;20230;-52
2022/10/01 07:43:25;;;;;;;4.23;3.53;;;10.70;99.90;;;;;;5044015;28;20223;-52
2022/10/01 07:45:56;;;;;;;3.57;3.27;;;10.70;99.90;;;;;;5054619;28;20347;-52
2022/10/01 07:48:25;;;;;;;4.20;3.90;;;10.70;99.90;;;;;;5054015;28;20226;-53
2022/10/01 07:50:55;;;;;;;3.60;3.30;;;10.70;99.90;;;;;;5051330;28;20236;-52
2022/10/01 07:53:23;;;;;;;3.40;3.03;;;10.70;99.90;;;;;;5044968;28;20217;-52
2022/10/01 07:55:51;;;;;;;3.53;3.10;;;10.70;99.90;;;;;;5054305;28;20306;-53
2022/10/01 07:58:22;;;;;;;3.40;3.10;;;10.70;99.90;;;;;;5047568;28;20248;-52
2022/10/01 08:00:54;;;;;;;4.20;3.60;;;10.80;99.90;;;;;;5053508;28;20285;-52
2022/10/01 08:03:23;;;;;;;3.57;3.27;;;10.80;99.90;;;;;;5044138;28;20215;-52
2022/10/01 08:05:53;;;;;;;3.50;3.20;;;10.80;99.90;;;;;;5046794;28;20744;-52
2022/10/01 08:08:23;;;;;;;3.20;2.87;;;10.80;99.90;;;;;;5053038;28;20225;-52
2022/10/01 08:10:51;;;;;;;3.40;3.20;;;10.80;99.90;;;;;;5056010;28;20226;-53
2022/10/01 08:13:23;;;;;;;3.40;2.77;;;10.80;99.90;;;;;;5049220;28;20210;-52
2022/10/01 08:15:53;;;;;;;3.77;3.10;;;10.80;99.90;;;;;;5054255;28;20242;-51
2022/10/01 08:18:22;;;;;;;3.23;2.93;;;10.90;99.90;;;;;;5052841;28;20227;-52
2022/10/01 08:20:51;;;;;;;3.27;3.00;;;10.80;99.90;;;;;;5053800;28;20229;-52
2022/10/01 08:23:19;;;;;;;3.93;3.13;;;10.90;99.90;;;;;;5048110;28;20227;-53
2022/10/01 08:25:48;;;;;;;3.77;3.30;;;10.90;99.90;;;;;;5053254;28;20227;-53
2022/10/01 08:28:17;;;;;;;3.77;3.47;;;10.80;99.90;;;;;;5053874;28;20273;-52
2022/10/01 08:30:45;;;;;;;3.87;3.57;;;10.90;99.90;;;;;;5052949;28;20241;-52
2022/10/01 08:33:13;;;;;;;3.90;3.47;;;10.90;99.90;;;;;;5047748;28;20571;-52
2022/10/01 08:35:43;;;;;;;4.17;3.27;;;10.90;99.90;;;;;;5049394;28;20221;-53
2022/10/01 08:38:12;;;;;;;3.83;3.50;;;11.00;99.90;;;;;;5053240;28;20583;-53
2022/10/01 08:40:46;;;;;;;3.37;3.07;;;11.00;99.90;;;;;;5052634;28;20216;-52
2022/10/01 08:43:28;;;;;;;4.00;3.20;;;11.00;99.90;;;;;;5043152;28;20692;-53
2022/10/01 08:46:00;;;;;;;4.07;3.40;;;11.10;99.90;;;;;;5052478;28;20226;-52
2022/10/01 08:48:40;;;;;;;3.60;3.30;;;11.10;99.90;;;;;;5053099;28;20748;-52
2022/10/01 08:51:11;;;;;;;4.13;3.60;;;11.10;99.90;;;;;;5053189;28;20236;-52
2022/10/01 08:53:43;;;;;;;4.33;3.57;;;11.10;99.90;;;;;;5043344;28;20581;-53
2022/10/01 08:56:20;;;;;;;3.77;3.37;;;11.10;99.90;;;;;;5045149;28;20690;-52
2022/10/01 08:58:56;;;;;;;3.97;3.67;;;11.20;99.90;;;;;;5053139;28;20232;-53
2022/10/01 09:01:24;;;;;;;5.63;5.13;;;11.30;99.90;;;;;;5052106;28;20239;-52
2022/10/01 09:03:53;;;;;;;6.10;5.60;;;11.40;99.90;;;;;;5037876;28;20219;-52
2022/10/01 09:06:24;;;;;;;5.67;5.27;;;11.40;99.90;;;;;;5052664;28;20242;-52
2022/10/01 09:09:13;;;;;;;5.63;5.23;;;11.40;99.90;;;;;;5049760;28;20221;-53
2022/10/01 09:11:54;;;;;;;6.93;6.33;;;11.50;99.90;;;;;;5047011;28;20242;-49
2022/10/01 09:14:35;;;;;;;7.43;6.80;;;11.50;99.90;;;;;;5051694;28;20253;-52
2022/10/01 09:17:13;;;;;;;7.53;6.93;;;11.50;99.90;;;;;;5049077;28;20234;-52
2022/10/01 09:20:01;;;;;;;6.83;6.27;;;11.60;99.90;;;;;;5045070;28;20234;-52
2022/10/01 09:22:37;;;;;;;6.83;6.33;;;11.60;99.90;;;;;;5043677;28;20230;-52
2022/10/01 09:25:13;;;;;;;7.80;7.20;;;11.70;99.90;;;;;;5039386;28;20234;-53
2022/10/01 09:27:42;;;;;;;7.87;7.27;;;11.70;99.90;;;;;;5035244;28;20584;-53
2022/10/01 09:30:17;;;;;;;8.20;7.50;;;11.80;99.90;;;;;;5040113;28;20285;-49
2022/10/01 09:32:50;;;;;;;8.57;7.83;;;11.90;99.90;;;;;;5046300;28;20229;-52
2022/10/01 09:35:33;;;;;;;9.00;8.30;;;12.10;99.90;;;;;;5038941;28;20227;-53
2022/10/01 09:38:10;;;;;;;8.80;8.10;;;12.20;99.90;;;;;;5040434;28;20329;-53
2022/10/01 09:40:44;;;;;;;9.00;8.20;;;12.30;99.90;;;;;;5043305;28;20610;-53
2022/10/01 09:43:13;;;;;;;9.10;8.17;;;12.30;99.90;;;;;;5047270;28;20584;-53
2022/10/01 09:45:43;;;;;;;9.80;8.80;;;12.30;99.90;;;;;;5045357;28;20235;-53
2022/10/01 09:48:25;;;;;;;9.00;8.30;;;12.40;99.90;;;;;;5044398;28;20297;-54
2022/10/01 09:50:57;;;;;;;8.80;8.10;;;12.60;99.90;;;;;;5053108;28;20687;-53
2022/10/01 09:53:32;;;;;;;7.97;7.27;;;12.80;99.90;;;;;;5056821;28;20226;-54
2022/10/01 09:56:05;;;;;;;7.43;6.73;;;12.80;99.90;;;;;;5056287;28;20292;-54
2022/10/01 09:58:36;;;;;;;7.57;6.97;;;12.90;99.90;;;;;;5056516;28;20640;-54
2022/10/01 10:01:17;;;;;;;7.07;6.53;;;13.00;99.90;;;;;;5055988;28;20238;-53
2022/10/01 10:03:54;;;;;;;7.80;7.00;;;13.10;99.90;;;;;;5050641;28;20310;-54
2022/10/01 10:06:27;;;;;;;6.70;6.03;;;13.30;99.90;;;;;;5056090;28;20234;-54
2022/10/01 10:08:56;;;;;;;6.73;6.03;;;13.30;99.90;;;;;;5056576;28;20591;-54
2022/10/01 10:11:27;;;;;;;6.40;5.87;;;13.40;99.90;;;;;;5055308;28;20216;-54
2022/10/01 10:13:59;;;;;;;6.77;5.47;;;13.60;99.90;;;;;;5049152;28;20234;-54
2022/10/01 10:16:30;;;;;;;6.40;5.77;;;13.80;99.90;;;;;;5056144;28;20235;-54
2022/10/01 10:19:01;;;;;;;6.20;5.57;;;13.90;99.90;;;;;;5055863;28;20260;-54
2022/10/01 10:21:32;;;;;;;5.37;4.70;;;13.90;99.90;;;;;;5044237;28;20614;-54
2022/10/01 10:24:02;;;;;;;5.43;4.53;;;13.90;99.90;;;;;;5052210;28;20228;-54
2022/10/01 10:26:32;;;;;;;6.97;4.73;;;13.90;99.90;;;;;;5055547;28;20241;-54
2022/10/01 10:29:02;;;;;;;5.63;4.20;;;13.90;99.90;;;;;;5056118;28;20232;-53
2022/10/01 10:31:40;;;;;;;7.30;4.20;;;13.90;99.90;;;;;;5037884;28;20244;-54
2022/10/01 10:34:13;;;;;;;7.67;4.03;;;13.90;99.90;;;;;;5043572;28;20703;-53
2022/10/01 10:36:43;;;;;;;7.70;4.20;;;14.00;99.90;;;;;;5053858;28;20232;-54
2022/10/01 10:39:20;;;;;;;7.90;4.43;;;14.10;99.90;;;;;;5039669;28;20224;-54
2022/10/01 10:41:50;;;;;;;5.47;3.80;;;14.60;99.90;;;;;;5053524;28;20725;-53
2022/10/01 10:44:21;;;;;;;7.57;4.40;;;14.90;99.90;;;;;;5048585;28;20221;-53
2022/10/01 10:46:53;;;;;;;5.67;3.27;;;15.40;99.90;;;;;;5055683;28;20219;-54
2022/10/01 10:49:25;;;;;;;6.60;3.00;;;15.90;99.90;;;;;;5055243;28;20228;-53
2022/10/01 10:51:54;;;;;;;5.53;2.70;;;16.10;99.90;;;;;;5042505;28;20227;-54
2022/10/01 10:54:28;;;;;;;5.80;2.80;;;16.40;99.90;;;;;;5049288;28;20263;-54
2022/10/01 10:57:01;;;;;;;4.70;2.50;;;16.70;99.90;;;;;;5053782;28;20236;-55
2022/10/01 10:59:31;;;;;;;9.27;2.80;;;16.90;99.90;;;;;;5059480;28;20231;-54
2022/10/01 11:02:04;;;;;;;6.43;2.13;;;17.00;99.90;;;;;;5049188;28;20723;-53
2022/10/01 11:04:39;;;;;;;5.10;2.03;;;16.90;99.90;;;;;;5052097;28;20259;-54
2022/10/01 11:07:09;;;;;;;6.47;2.00;;;16.90;99.90;;;;;;5055310;28;20240;-54
2022/10/01 11:09:58;;;;;;;5.97;2.30;;;17.10;99.90;;;;;;5055151;28;20227;-55
2022/10/01 11:12:37;;;;;;;6.07;2.30;;;17.30;99.90;;;;;;5044276;28;20549;-54
2022/10/01 11:15:22;;;;;;;6.20;2.33;;;17.40;99.90;;;;;;5054959;28;20218;-54
2022/10/01 11:18:25;;;;;;;4.90;2.13;;;17.10;99.90;;;;;;5055360;28;20227;-55
2022/10/01 11:21:07;;;;;;;5.37;2.03;;;17.30;99.90;;;;;;5050741;28;20240;-55
2022/10/01 11:23:56;;;;;;;5.97;2.20;;;17.80;99.90;;;;;;5049411;28;20561;-55
2022/10/01 11:26:28;;;;;;;8.03;2.53;;;17.80;99.90;;;;;;5048610;28;20228;-54
2022/10/01 11:29:07;;;;;;;3.90;1.80;;;17.80;99.90;;;;;;5054553;28;20236;-54
2022/10/01 11:31:45;;;;;;;5.90;1.80;;;18.00;99.90;;;;;;5043459;28;20225;-54
2022/10/01 11:34:31;;;;;;;7.43;1.93;;;18.10;99.90;;;;;;5044990;28;20241;-54
2022/10/01 11:37:10;;;;;;;6.97;2.00;;;18.10;99.90;;;;;;5054158;28;20229;-54
2022/10/01 11:39:42;;;;;;;6.73;1.73;;;18.10;99.90;;;;;;5053115;28;20224;-55
2022/10/01 11:42:14;;;;;;;5.80;1.50;;;18.00;99.90;;;;;;5049126;28;20242;-53
2022/10/01 11:44:48;;;;;;;3.77;1.50;;;17.90;99.90;;;;;;5045645;28;20220;-55
2022/10/01 11:47:22;;;;;;;5.43;2.00;;;17.80;99.90;;;;;;5051116;28;20224;-55
2022/10/01 11:49:58;;;;;;;6.07;1.87;;;17.80;99.90;;;;;;5048071;28;20712;-55
2022/10/01 11:52:37;;;;;;;6.13;1.33;;;17.80;99.90;;;;;;5041554;28;20233;-55
2022/10/01 12:00:58;;;;;;;5.90;1.67;;;17.70;99.90;;;;;;5052736;28;20233;-55
2022/10/01 12:03:32;;;;;;;4.23;1.30;;;17.80;99.90;;;;;;5045830;28;20226;-54
2022/10/01 12:06:03;;;;;;;6.43;1.70;;;18.20;99.90;;;;;;5045759;28;20242;-55
2022/10/01 12:08:37;;;;;;;8.07;1.80;;;18.40;99.90;;;;;;5043158;28;20241;-55
2022/10/01 12:11:15;;;;;;;5.93;1.50;;;18.60;99.90;;;;;;5047679;28;20309;-53
2022/10/01 12:13:54;;;;;;;6.80;1.83;;;18.70;99.90;;;;;;5043002;28;20225;-55
2022/10/01 12:16:29;;;;;;;5.33;1.47;;;18.80;99.90;;;;;;5042928;28;20236;-55
2022/10/01 12:19:01;;;;;;;5.10;1.20;;;18.80;99.90;;;;;;5044917;28;20245;-55
2022/10/01 12:21:36;;;;;;;8.17;1.80;;;18.50;99.90;;;;;;5041898;28;20231;-55
2022/10/01 12:24:11;;;;;;;5.20;1.60;;;18.40;99.90;;;;;;5042593;28;20223;-55
2022/10/01 12:26:48;;;;;;;6.07;1.40;;;18.50;99.90;;;;;;5047784;28;20233;-56
2022/10/01 12:29:24;;;;;;;6.63;1.47;;;18.40;99.90;;;;;;5044203;28;20221;-56
2022/10/01 12:31:59;;;;;;;6.43;1.40;;;18.60;99.90;;;;;;5045923;28;20236;-55
2022/10/01 12:34:39;;;;;;;8.13;1.77;;;18.80;99.90;;;;;;5051844;28;20245;-55
2022/10/01 12:37:20;;;;;;;7.77;1.93;;;18.90;99.90;;;;;;5053140;28;20226;-56
2022/10/01 12:40:05;;;;;;;6.83;1.60;;;18.90;99.90;;;;;;5050176;28;20280;-55
2022/10/01 12:42:49;;;;;;;5.93;1.57;;;18.80;99.90;;;;;;5046263;28;20232;-56
2022/10/01 12:45:27;;;;;;;5.80;1.40;;;18.50;99.90;;;;;;5045532;28;20226;-55
2022/10/01 12:48:04;;;;;;;6.03;1.67;;;17.70;99.90;;;;;;5043635;28;20229;-56
2022/10/01 12:50:42;;;;;;;8.37;1.33;;;16.50;99.90;;;;;;5033529;28;20727;-56
2022/10/01 12:53:31;;;;;;;5.27;1.20;;;16.00;99.90;;;;;;5036197;28;20231;-56
2022/10/01 12:56:06;;;;;;;4.60;1.20;;;15.60;99.90;;;;;;5051805;28;20216;-56
2022/10/01 12:59:05;;;;;;;4.00;1.10;;;15.40;99.90;;;;;;5052684;28;20346;-55
2022/10/01 13:01:45;;;;;;;6.07;1.17;;;15.30;99.90;;;;;;5047363;28;20331;-56
2022/10/01 13:04:30;;;;;;;4.13;0.90;;;15.20;99.90;;;;;;5044666;28;20691;-55
2022/10/01 13:07:17;;;;;;;4.87;1.10;;;15.00;99.90;;;;;;5052885;28;20688;-56
2022/10/01 13:09:56;;;;;;;5.57;1.20;;;14.90;99.90;;;;;;5051964;28;20243;-55
2022/10/01 13:12:38;;;;;;;5.10;1.17;;;14.90;99.90;;;;;;5042204;28;20585;-56
2022/10/01 13:15:13;;;;;;;2.00;0.93;;;14.80;99.90;;;;;;5045129;28;20223;-55
2022/10/01 13:17:48;;;;;;;3.10;0.80;;;14.80;99.90;;;;;;5042850;28;20219;-55
2022/10/01 13:20:23;;;;;;;3.10;1.20;;;14.80;99.90;;;;;;5042391;28;20228;-55